sensor_id;sensor_type;location;lat;lon;timestamp;P1;durP1;ratioP1;P2;durP2;ratioP2
10120;SDS011;5100;45.176;5.714;2023-03-05T00:00:12;41.87;;;37.33;;
10120;SDS011;5100;45.176;5.714;2023-03-05T00:02:39;41.27;;;36.27;;
10120;SDS011;5100;45.176;5.714;2023-03-05T00:05:06;41.70;;;36.07;;
10120;SDS011;5100;45.176;5.714;2023-03-05T00:07:33;39.23;;;35.03;;
10120;SDS011;5100;45.176;5.714;2023-03-05T00:10:00;40.57;;;36.20;;
10120;SDS011;5100;45.176;5.714;2023-03-05T00:12:27;41.60;;;36.23;;
10120;SDS011;5100;45.176;5.714;2023-03-05T00:14:53;38.10;;;33.97;;
10120;SDS011;5100;45.176;5.714;2023-03-05T00:17:19;40.17;;;35.83;;
10120;SDS011;5100;45.176;5.714;2023-03-05T00:19:46;39.13;;;34.93;;
10120;SDS011;5100;45.176;5.714;2023-03-05T00:22:12;38.30;;;34.13;;
10120;SDS011;5100;45.176;5.714;2023-03-05T00:24:38;38.73;;;34.63;;
10120;SDS011;5100;45.176;5.714;2023-03-05T00:27:04;39.00;;;34.80;;
10120;SDS011;5100;45.176;5.714;2023-03-05T00:29:30;38.63;;;34.53;;
10120;SDS011;5100;45.176;5.714;2023-03-05T00:31:56;39.77;;;35.23;;
10120;SDS011;5100;45.176;5.714;2023-03-05T00:34:22;37.77;;;33.40;;
10120;SDS011;5100;45.176;5.714;2023-03-05T00:36:50;37.63;;;33.53;;
10120;SDS011;5100;45.176;5.714;2023-03-05T00:39:17;38.20;;;33.70;;
10120;SDS011;5100;45.176;5.714;2023-03-05T00:41:45;37.70;;;33.67;;
10120;SDS011;5100;45.176;5.714;2023-03-05T00:44:11;36.00;;;32.17;;
10120;SDS011;5100;45.176;5.714;2023-03-05T00:46:37;36.40;;;32.50;;
10120;SDS011;5100;45.176;5.714;2023-03-05T00:49:04;37.30;;;33.30;;
10120;SDS011;5100;45.176;5.714;2023-03-05T00:51:31;37.30;;;32.80;;
10120;SDS011;5100;45.176;5.714;2023-03-05T00:53:57;38.27;;;33.50;;
10120;SDS011;5100;45.176;5.714;2023-03-05T00:56:24;36.30;;;32.30;;
10120;SDS011;5100;45.176;5.714;2023-03-05T00:58:50;38.37;;;32.90;;
10120;SDS011;5100;45.176;5.714;2023-03-05T01:01:17;34.93;;;30.50;;
10120;SDS011;5100;45.176;5.714;2023-03-05T01:03:44;32.67;;;29.13;;
10120;SDS011;5100;45.176;5.714;2023-03-05T01:06:11;32.40;;;28.93;;
10120;SDS011;5100;45.176;5.714;2023-03-05T01:08:39;33.57;;;29.93;;
10120;SDS011;5100;45.176;5.714;2023-03-05T01:11:06;31.90;;;28.60;;
10120;SDS011;5100;45.176;5.714;2023-03-05T01:13:32;33.77;;;30.00;;
10120;SDS011;5100;45.176;5.714;2023-03-05T01:15:59;34.67;;;29.90;;
10120;SDS011;5100;45.176;5.714;2023-03-05T01:18:26;33.07;;;29.57;;
10120;SDS011;5100;45.176;5.714;2023-03-05T01:20:52;32.70;;;29.13;;
10120;SDS011;5100;45.176;5.714;2023-03-05T01:23:18;30.80;;;27.43;;
10120;SDS011;5100;45.176;5.714;2023-03-05T01:25:44;31.13;;;27.83;;
10120;SDS011;5100;45.176;5.714;2023-03-05T01:28:10;34.90;;;28.57;;
10120;SDS011;5100;45.176;5.714;2023-03-05T01:30:36;32.03;;;28.57;;
10120;SDS011;5100;45.176;5.714;2023-03-05T01:33:03;31.97;;;28.50;;
10120;SDS011;5100;45.176;5.714;2023-03-05T01:35:29;31.90;;;27.97;;
10120;SDS011;5100;45.176;5.714;2023-03-05T01:37:55;29.63;;;26.50;;
10120;SDS011;5100;45.176;5.714;2023-03-05T01:40:26;32.10;;;27.67;;
10120;SDS011;5100;45.176;5.714;2023-03-05T01:43:18;29.57;;;26.37;;
10120;SDS011;5100;45.176;5.714;2023-03-05T01:48:49;28.73;;;25.83;;
10120;SDS011;5100;45.176;5.714;2023-03-05T01:57:06;29.10;;;25.43;;
10120;SDS011;5100;45.176;5.714;2023-03-05T01:59:37;28.93;;;25.30;;
10120;SDS011;5100;45.176;5.714;2023-03-05T02:02:05;27.00;;;24.23;;
10120;SDS011;5100;45.176;5.714;2023-03-05T02:04:35;28.20;;;25.07;;
10120;SDS011;5100;45.176;5.714;2023-03-05T02:07:07;26.50;;;23.67;;
10120;SDS011;5100;45.176;5.714;2023-03-05T02:09:36;28.37;;;24.57;;
10120;SDS011;5100;45.176;5.714;2023-03-05T02:12:04;27.37;;;24.57;;
10120;SDS011;5100;45.176;5.714;2023-03-05T02:14:31;29.00;;;24.97;;
10120;SDS011;5100;45.176;5.714;2023-03-05T02:16:57;27.87;;;24.03;;
10120;SDS011;5100;45.176;5.714;2023-03-05T02:19:24;25.70;;;22.93;;
10120;SDS011;5100;45.176;5.714;2023-03-05T02:21:50;26.30;;;22.33;;
10120;SDS011;5100;45.176;5.714;2023-03-05T02:24:18;27.37;;;21.87;;
10120;SDS011;5100;45.176;5.714;2023-03-05T02:27:02;25.17;;;21.53;;
10120;SDS011;5100;45.176;5.714;2023-03-05T02:29:29;25.23;;;21.00;;
10120;SDS011;5100;45.176;5.714;2023-03-05T02:31:57;23.47;;;20.90;;
10120;SDS011;5100;45.176;5.714;2023-03-05T02:34:23;24.60;;;20.90;;
10120;SDS011;5100;45.176;5.714;2023-03-05T02:36:49;25.40;;;20.40;;
10120;SDS011;5100;45.176;5.714;2023-03-05T02:39:16;23.53;;;21.00;;
10120;SDS011;5100;45.176;5.714;2023-03-05T02:41:42;25.37;;;20.33;;
10120;SDS011;5100;45.176;5.714;2023-03-05T02:44:09;26.10;;;21.97;;
10120;SDS011;5100;45.176;5.714;2023-03-05T02:46:35;26.20;;;21.50;;
10120;SDS011;5100;45.176;5.714;2023-03-05T02:49:02;24.43;;;20.70;;
10120;SDS011;5100;45.176;5.714;2023-03-05T02:51:28;26.00;;;21.97;;
10120;SDS011;5100;45.176;5.714;2023-03-05T02:53:55;25.47;;;21.30;;
10120;SDS011;5100;45.176;5.714;2023-03-05T02:56:23;23.67;;;20.93;;
10120;SDS011;5100;45.176;5.714;2023-03-05T02:58:49;23.47;;;20.63;;
10120;SDS011;5100;45.176;5.714;2023-03-05T03:01:15;23.33;;;20.17;;
10120;SDS011;5100;45.176;5.714;2023-03-05T03:03:42;24.93;;;21.23;;
10120;SDS011;5100;45.176;5.714;2023-03-05T03:06:08;23.17;;;20.67;;
10120;SDS011;5100;45.176;5.714;2023-03-05T03:08:34;26.57;;;23.07;;
10120;SDS011;5100;45.176;5.714;2023-03-05T03:11:04;26.10;;;23.30;;
10120;SDS011;5100;45.176;5.714;2023-03-05T03:13:35;26.60;;;22.00;;
10120;SDS011;5100;45.176;5.714;2023-03-05T03:16:02;25.17;;;22.47;;
10120;SDS011;5100;45.176;5.714;2023-03-05T03:18:33;27.97;;;23.50;;
10120;SDS011;5100;45.176;5.714;2023-03-05T03:20:59;30.43;;;23.57;;
10120;SDS011;5100;45.176;5.714;2023-03-05T03:23:25;28.30;;;24.20;;
10120;SDS011;5100;45.176;5.714;2023-03-05T03:25:51;28.87;;;24.33;;
10120;SDS011;5100;45.176;5.714;2023-03-05T03:28:17;27.07;;;23.70;;
10120;SDS011;5100;45.176;5.714;2023-03-05T03:30:43;29.30;;;24.83;;
10120;SDS011;5100;45.176;5.714;2023-03-05T03:33:09;30.23;;;24.43;;
10120;SDS011;5100;45.176;5.714;2023-03-05T03:35:35;27.63;;;23.53;;
10120;SDS011;5100;45.176;5.714;2023-03-05T03:38:02;29.77;;;24.67;;
10120;SDS011;5100;45.176;5.714;2023-03-05T03:40:28;30.53;;;25.33;;
10120;SDS011;5100;45.176;5.714;2023-03-05T03:42:55;29.47;;;25.43;;
10120;SDS011;5100;45.176;5.714;2023-03-05T03:45:21;28.80;;;24.17;;
10120;SDS011;5100;45.176;5.714;2023-03-05T03:47:48;30.43;;;26.63;;
10120;SDS011;5100;45.176;5.714;2023-03-05T03:50:14;31.87;;;25.03;;
10120;SDS011;5100;45.176;5.714;2023-03-05T03:52:41;30.23;;;25.07;;
10120;SDS011;5100;45.176;5.714;2023-03-05T03:55:07;27.87;;;24.83;;
10120;SDS011;5100;45.176;5.714;2023-03-05T03:57:35;29.43;;;25.70;;
10120;SDS011;5100;45.176;5.714;2023-03-05T04:00:03;28.90;;;24.37;;
10120;SDS011;5100;45.176;5.714;2023-03-05T04:02:37;31.07;;;25.70;;
10120;SDS011;5100;45.176;5.714;2023-03-05T04:05:03;31.30;;;26.23;;
10120;SDS011;5100;45.176;5.714;2023-03-05T04:07:30;30.73;;;24.50;;
10120;SDS011;5100;45.176;5.714;2023-03-05T04:09:56;30.23;;;25.03;;
10120;SDS011;5100;45.176;5.714;2023-03-05T04:12:22;32.97;;;26.60;;
10120;SDS011;5100;45.176;5.714;2023-03-05T04:14:48;31.27;;;25.97;;
10120;SDS011;5100;45.176;5.714;2023-03-05T04:17:15;32.47;;;26.30;;
10120;SDS011;5100;45.176;5.714;2023-03-05T04:19:41;29.13;;;25.73;;
10120;SDS011;5100;45.176;5.714;2023-03-05T04:22:11;30.87;;;25.87;;
10120;SDS011;5100;45.176;5.714;2023-03-05T04:24:38;31.50;;;25.90;;
10120;SDS011;5100;45.176;5.714;2023-03-05T04:27:04;31.10;;;25.80;;
10120;SDS011;5100;45.176;5.714;2023-03-05T04:29:31;33.00;;;26.43;;
10120;SDS011;5100;45.176;5.714;2023-03-05T04:31:57;30.43;;;24.87;;
10120;SDS011;5100;45.176;5.714;2023-03-05T04:34:23;31.23;;;26.40;;
10120;SDS011;5100;45.176;5.714;2023-03-05T04:36:50;31.03;;;25.47;;
10120;SDS011;5100;45.176;5.714;2023-03-05T04:39:15;30.70;;;26.40;;
10120;SDS011;5100;45.176;5.714;2023-03-05T04:41:42;32.07;;;27.47;;
10120;SDS011;5100;45.176;5.714;2023-03-05T04:44:08;31.00;;;27.37;;
10120;SDS011;5100;45.176;5.714;2023-03-05T04:46:34;30.53;;;26.60;;
10120;SDS011;5100;45.176;5.714;2023-03-05T04:49:00;34.30;;;27.87;;
10120;SDS011;5100;45.176;5.714;2023-03-05T04:51:26;32.50;;;27.93;;
10120;SDS011;5100;45.176;5.714;2023-03-05T04:53:52;31.73;;;26.80;;
10120;SDS011;5100;45.176;5.714;2023-03-05T04:56:19;33.87;;;27.90;;
10120;SDS011;5100;45.176;5.714;2023-03-05T04:58:45;30.90;;;27.60;;
10120;SDS011;5100;45.176;5.714;2023-03-05T05:01:11;33.13;;;27.57;;
10120;SDS011;5100;45.176;5.714;2023-03-05T05:03:38;33.63;;;28.27;;
10120;SDS011;5100;45.176;5.714;2023-03-05T05:06:05;31.77;;;26.57;;
10120;SDS011;5100;45.176;5.714;2023-03-05T05:08:31;30.77;;;26.57;;
10120;SDS011;5100;45.176;5.714;2023-03-05T05:11:04;34.10;;;29.83;;
10120;SDS011;5100;45.176;5.714;2023-03-05T05:13:32;32.67;;;26.80;;
10120;SDS011;5100;45.176;5.714;2023-03-05T05:15:59;34.73;;;27.60;;
10120;SDS011;5100;45.176;5.714;2023-03-05T05:18:25;33.53;;;27.40;;
10120;SDS011;5100;45.176;5.714;2023-03-05T05:20:51;35.00;;;28.50;;
10120;SDS011;5100;45.176;5.714;2023-03-05T05:23:18;35.00;;;28.20;;
10120;SDS011;5100;45.176;5.714;2023-03-05T05:25:44;34.63;;;28.10;;
10120;SDS011;5100;45.176;5.714;2023-03-05T05:28:10;34.50;;;28.30;;
10120;SDS011;5100;45.176;5.714;2023-03-05T05:30:37;32.40;;;28.20;;
10120;SDS011;5100;45.176;5.714;2023-03-05T05:33:03;34.43;;;28.00;;
10120;SDS011;5100;45.176;5.714;2023-03-05T05:35:29;33.90;;;28.03;;
10120;SDS011;5100;45.176;5.714;2023-03-05T05:37:55;33.13;;;27.73;;
10120;SDS011;5100;45.176;5.714;2023-03-05T05:40:21;33.50;;;27.80;;
10120;SDS011;5100;45.176;5.714;2023-03-05T05:42:47;34.53;;;27.70;;
10120;SDS011;5100;45.176;5.714;2023-03-05T05:45:14;32.03;;;26.63;;
10120;SDS011;5100;45.176;5.714;2023-03-05T05:47:40;31.40;;;27.50;;
10120;SDS011;5100;45.176;5.714;2023-03-05T05:50:06;31.90;;;27.17;;
10120;SDS011;5100;45.176;5.714;2023-03-05T05:52:33;34.23;;;27.37;;
10120;SDS011;5100;45.176;5.714;2023-03-05T05:54:59;33.53;;;28.80;;
10120;SDS011;5100;45.176;5.714;2023-03-05T05:57:25;31.90;;;27.37;;
10120;SDS011;5100;45.176;5.714;2023-03-05T05:59:51;33.33;;;28.43;;
10120;SDS011;5100;45.176;5.714;2023-03-05T06:02:17;33.83;;;27.57;;
10120;SDS011;5100;45.176;5.714;2023-03-05T06:04:44;33.53;;;28.07;;
10120;SDS011;5100;45.176;5.714;2023-03-05T06:07:10;34.57;;;28.70;;
10120;SDS011;5100;45.176;5.714;2023-03-05T06:09:35;37.90;;;28.93;;
10120;SDS011;5100;45.176;5.714;2023-03-05T06:12:02;35.53;;;30.43;;
10120;SDS011;5100;45.176;5.714;2023-03-05T06:14:28;36.17;;;28.87;;
10120;SDS011;5100;45.176;5.714;2023-03-05T06:16:54;36.10;;;30.93;;
10120;SDS011;5100;45.176;5.714;2023-03-05T06:19:21;36.13;;;30.10;;
10120;SDS011;5100;45.176;5.714;2023-03-05T06:21:47;35.43;;;30.37;;
10120;SDS011;5100;45.176;5.714;2023-03-05T06:24:13;37.30;;;29.30;;
10120;SDS011;5100;45.176;5.714;2023-03-05T06:26:39;36.00;;;30.27;;
10120;SDS011;5100;45.176;5.714;2023-03-05T06:29:05;35.37;;;29.77;;
10120;SDS011;5100;45.176;5.714;2023-03-05T06:31:31;35.53;;;29.87;;
10120;SDS011;5100;45.176;5.714;2023-03-05T06:33:59;32.43;;;28.60;;
10120;SDS011;5100;45.176;5.714;2023-03-05T06:36:25;34.80;;;29.87;;
10120;SDS011;5100;45.176;5.714;2023-03-05T06:38:53;35.30;;;28.90;;
10120;SDS011;5100;45.176;5.714;2023-03-05T06:41:21;34.60;;;29.40;;
10120;SDS011;5100;45.176;5.714;2023-03-05T06:43:49;39.13;;;30.73;;
10120;SDS011;5100;45.176;5.714;2023-03-05T06:46:20;34.67;;;28.97;;
10120;SDS011;5100;45.176;5.714;2023-03-05T06:48:51;34.93;;;29.37;;
10120;SDS011;5100;45.176;5.714;2023-03-05T06:51:21;34.30;;;30.00;;
10120;SDS011;5100;45.176;5.714;2023-03-05T06:53:49;34.70;;;28.27;;
10120;SDS011;5100;45.176;5.714;2023-03-05T06:56:16;36.37;;;30.40;;
10120;SDS011;5100;45.176;5.714;2023-03-05T06:58:43;37.37;;;31.57;;
10120;SDS011;5100;45.176;5.714;2023-03-05T07:01:12;34.83;;;30.83;;
10120;SDS011;5100;45.176;5.714;2023-03-05T07:03:39;36.63;;;30.83;;
10120;SDS011;5100;45.176;5.714;2023-03-05T07:06:07;34.90;;;29.80;;
10120;SDS011;5100;45.176;5.714;2023-03-05T07:08:35;37.83;;;30.03;;
10120;SDS011;5100;45.176;5.714;2023-03-05T07:11:02;36.60;;;31.03;;
10120;SDS011;5100;45.176;5.714;2023-03-05T07:13:33;39.83;;;29.57;;
10120;SDS011;5100;45.176;5.714;2023-03-05T07:16:03;34.10;;;29.07;;
10120;SDS011;5100;45.176;5.714;2023-03-05T07:18:33;37.57;;;29.67;;
10120;SDS011;5100;45.176;5.714;2023-03-05T07:21:00;38.20;;;30.60;;
10120;SDS011;5100;45.176;5.714;2023-03-05T07:23:27;34.67;;;29.93;;
10120;SDS011;5100;45.176;5.714;2023-03-05T07:25:54;34.47;;;29.83;;
10120;SDS011;5100;45.176;5.714;2023-03-05T07:28:20;35.30;;;29.87;;
10120;SDS011;5100;45.176;5.714;2023-03-05T07:30:53;35.10;;;29.70;;
10120;SDS011;5100;45.176;5.714;2023-03-05T07:33:22;39.13;;;30.47;;
10120;SDS011;5100;45.176;5.714;2023-03-05T07:35:49;34.60;;;30.27;;
10120;SDS011;5100;45.176;5.714;2023-03-05T07:38:15;35.90;;;30.03;;
10120;SDS011;5100;45.176;5.714;2023-03-05T07:40:41;35.73;;;29.77;;
10120;SDS011;5100;45.176;5.714;2023-03-05T07:43:07;37.80;;;31.23;;
10120;SDS011;5100;45.176;5.714;2023-03-05T07:45:37;33.93;;;30.20;;
10120;SDS011;5100;45.176;5.714;2023-03-05T07:48:05;37.23;;;31.00;;
10120;SDS011;5100;45.176;5.714;2023-03-05T07:50:32;41.10;;;32.13;;
10120;SDS011;5100;45.176;5.714;2023-03-05T07:52:58;36.77;;;30.30;;
10120;SDS011;5100;45.176;5.714;2023-03-05T07:55:24;36.80;;;30.50;;
10120;SDS011;5100;45.176;5.714;2023-03-05T07:57:50;37.90;;;30.40;;
10120;SDS011;5100;45.176;5.714;2023-03-05T08:00:17;36.80;;;29.40;;
10120;SDS011;5100;45.176;5.714;2023-03-05T08:02:44;36.00;;;30.73;;
10120;SDS011;5100;45.176;5.714;2023-03-05T08:05:10;35.30;;;27.73;;
10120;SDS011;5100;45.176;5.714;2023-03-05T08:07:36;37.23;;;28.50;;
10120;SDS011;5100;45.176;5.714;2023-03-05T08:10:03;34.47;;;24.77;;
10120;SDS011;5100;45.176;5.714;2023-03-05T08:12:29;35.83;;;26.43;;
10120;SDS011;5100;45.176;5.714;2023-03-05T08:14:55;35.10;;;28.90;;
10120;SDS011;5100;45.176;5.714;2023-03-05T08:17:21;37.47;;;28.47;;
10120;SDS011;5100;45.176;5.714;2023-03-05T08:19:47;37.00;;;30.77;;
10120;SDS011;5100;45.176;5.714;2023-03-05T08:22:14;36.33;;;27.10;;
10120;SDS011;5100;45.176;5.714;2023-03-05T08:24:42;34.47;;;26.97;;
10120;SDS011;5100;45.176;5.714;2023-03-05T08:27:08;35.47;;;26.97;;
10120;SDS011;5100;45.176;5.714;2023-03-05T08:29:34;34.73;;;26.33;;
10120;SDS011;5100;45.176;5.714;2023-03-05T08:32:00;32.63;;;25.37;;
10120;SDS011;5100;45.176;5.714;2023-03-05T08:34:26;38.63;;;27.87;;
10120;SDS011;5100;45.176;5.714;2023-03-05T08:36:52;34.80;;;27.50;;
10120;SDS011;5100;45.176;5.714;2023-03-05T08:39:18;36.33;;;26.77;;
10120;SDS011;5100;45.176;5.714;2023-03-05T08:41:44;36.90;;;27.03;;
10120;SDS011;5100;45.176;5.714;2023-03-05T08:44:10;38.17;;;26.43;;
10120;SDS011;5100;45.176;5.714;2023-03-05T08:46:39;34.97;;;26.27;;
10120;SDS011;5100;45.176;5.714;2023-03-05T08:49:06;38.97;;;29.37;;
10120;SDS011;5100;45.176;5.714;2023-03-05T08:51:32;37.53;;;28.20;;
10120;SDS011;5100;45.176;5.714;2023-03-05T08:54:00;37.90;;;28.37;;
10120;SDS011;5100;45.176;5.714;2023-03-05T08:56:27;37.47;;;28.97;;
10120;SDS011;5100;45.176;5.714;2023-03-05T08:58:55;38.67;;;29.93;;
10120;SDS011;5100;45.176;5.714;2023-03-05T09:01:22;38.80;;;29.17;;
10120;SDS011;5100;45.176;5.714;2023-03-05T09:03:48;35.73;;;27.90;;
10120;SDS011;5100;45.176;5.714;2023-03-05T09:06:14;37.43;;;27.40;;
10120;SDS011;5100;45.176;5.714;2023-03-05T09:08:40;35.30;;;28.13;;
10120;SDS011;5100;45.176;5.714;2023-03-05T09:11:07;38.23;;;29.17;;
10120;SDS011;5100;45.176;5.714;2023-03-05T09:13:34;39.10;;;28.63;;
10120;SDS011;5100;45.176;5.714;2023-03-05T09:16:03;36.70;;;28.07;;
10120;SDS011;5100;45.176;5.714;2023-03-05T09:18:31;37.27;;;28.43;;
10120;SDS011;5100;45.176;5.714;2023-03-05T09:20:57;37.33;;;29.00;;
10120;SDS011;5100;45.176;5.714;2023-03-05T09:23:28;35.50;;;28.80;;
10120;SDS011;5100;45.176;5.714;2023-03-05T09:25:54;38.23;;;29.73;;
10120;SDS011;5100;45.176;5.714;2023-03-05T09:28:20;38.07;;;28.53;;
10120;SDS011;5100;45.176;5.714;2023-03-05T09:30:47;36.40;;;32.50;;
10120;SDS011;5100;45.176;5.714;2023-03-05T09:33:13;37.33;;;32.27;;
10120;SDS011;5100;45.176;5.714;2023-03-05T09:35:39;38.97;;;33.83;;
10120;SDS011;5100;45.176;5.714;2023-03-05T09:38:05;36.53;;;32.73;;
10120;SDS011;5100;45.176;5.714;2023-03-05T09:46:18;36.00;;;31.97;;
10120;SDS011;5100;45.176;5.714;2023-03-05T09:49:17;35.40;;;31.57;;
10120;SDS011;5100;45.176;5.714;2023-03-05T09:51:53;38.90;;;33.50;;
10120;SDS011;5100;45.176;5.714;2023-03-05T09:54:28;35.47;;;31.73;;
10120;SDS011;5100;45.176;5.714;2023-03-05T09:57:01;37.87;;;33.07;;
10120;SDS011;5100;45.176;5.714;2023-03-05T09:59:32;38.97;;;32.20;;
10120;SDS011;5100;45.176;5.714;2023-03-05T10:02:12;34.70;;;30.97;;
10120;SDS011;5100;45.176;5.714;2023-03-05T10:04:59;37.43;;;33.17;;
10120;SDS011;5100;45.176;5.714;2023-03-05T10:07:36;36.80;;;32.77;;
10120;SDS011;5100;45.176;5.714;2023-03-05T10:10:13;36.80;;;31.90;;
10120;SDS011;5100;45.176;5.714;2023-03-05T10:12:55;38.80;;;33.93;;
10120;SDS011;5100;45.176;5.714;2023-03-05T10:15:36;38.00;;;32.03;;
10120;SDS011;5100;45.176;5.714;2023-03-05T10:21:03;37.23;;;33.23;;
10120;SDS011;5100;45.176;5.714;2023-03-05T10:29:10;37.53;;;32.67;;
10120;SDS011;5100;45.176;5.714;2023-03-05T10:40:19;38.17;;;34.03;;
10120;SDS011;5100;45.176;5.714;2023-03-05T10:42:53;39.40;;;34.20;;
10120;SDS011;5100;45.176;5.714;2023-03-05T10:48:10;38.33;;;33.40;;
10120;SDS011;5100;45.176;5.714;2023-03-05T10:50:41;39.90;;;34.30;;
10120;SDS011;5100;45.176;5.714;2023-03-05T10:53:28;41.47;;;33.87;;
10120;SDS011;5100;45.176;5.714;2023-03-05T10:56:04;38.23;;;34.03;;
10120;SDS011;5100;45.176;5.714;2023-03-05T10:58:32;37.37;;;33.10;;
10120;SDS011;5100;45.176;5.714;2023-03-05T11:00:59;37.97;;;33.87;;
10120;SDS011;5100;45.176;5.714;2023-03-05T11:03:47;38.40;;;34.07;;
10120;SDS011;5100;45.176;5.714;2023-03-05T11:09:14;38.37;;;34.23;;
10120;SDS011;5100;45.176;5.714;2023-03-05T11:11:43;40.13;;;34.03;;
10120;SDS011;5100;45.176;5.714;2023-03-05T11:14:26;38.53;;;33.83;;
10120;SDS011;5100;45.176;5.714;2023-03-05T11:17:02;39.90;;;33.53;;
10120;SDS011;5100;45.176;5.714;2023-03-05T11:19:47;42.33;;;31.10;;
10120;SDS011;5100;45.176;5.714;2023-03-05T11:22:15;39.93;;;31.53;;
10120;SDS011;5100;45.176;5.714;2023-03-05T11:24:43;39.33;;;32.30;;
10120;SDS011;5100;45.176;5.714;2023-03-05T11:29:55;37.53;;;33.23;;
10120;SDS011;5100;45.176;5.714;2023-03-05T11:32:23;37.00;;;32.97;;
10120;SDS011;5100;45.176;5.714;2023-03-05T11:34:53;38.60;;;34.07;;
10120;SDS011;5100;45.176;5.714;2023-03-05T11:37:27;39.60;;;34.00;;
10120;SDS011;5100;45.176;5.714;2023-03-05T11:42:41;38.87;;;33.83;;
10120;SDS011;5100;45.176;5.714;2023-03-05T11:45:16;38.70;;;34.40;;
10120;SDS011;5100;45.176;5.714;2023-03-05T11:47:53;37.43;;;33.33;;
10120;SDS011;5100;45.176;5.714;2023-03-05T11:50:29;38.93;;;33.43;;
10120;SDS011;5100;45.176;5.714;2023-03-05T11:58:02;38.20;;;34.27;;
10120;SDS011;5100;45.176;5.714;2023-03-05T12:00:30;37.20;;;33.20;;
10120;SDS011;5100;45.176;5.714;2023-03-05T12:03:01;37.43;;;32.13;;
10120;SDS011;5100;45.176;5.714;2023-03-05T12:05:34;39.43;;;31.57;;
10120;SDS011;5100;45.176;5.714;2023-03-05T12:08:04;37.27;;;32.07;;
10120;SDS011;5100;45.176;5.714;2023-03-05T12:10:38;36.97;;;32.97;;
10120;SDS011;5100;45.176;5.714;2023-03-05T12:18:36;36.83;;;31.67;;
10120;SDS011;5100;45.176;5.714;2023-03-05T12:23:55;36.73;;;32.83;;
10120;SDS011;5100;45.176;5.714;2023-03-05T12:29:30;34.80;;;31.07;;
10120;SDS011;5100;45.176;5.714;2023-03-05T12:40:34;34.00;;;29.20;;
10120;SDS011;5100;45.176;5.714;2023-03-05T12:48:48;35.33;;;31.53;;
10120;SDS011;5100;45.176;5.714;2023-03-05T12:51:26;33.83;;;30.10;;
10120;SDS011;5100;45.176;5.714;2023-03-05T12:54:09;36.00;;;29.60;;
10120;SDS011;5100;45.176;5.714;2023-03-05T12:56:49;33.47;;;29.97;;
10120;SDS011;5100;45.176;5.714;2023-03-05T12:59:18;34.17;;;30.47;;
10120;SDS011;5100;45.176;5.714;2023-03-05T13:01:54;33.70;;;30.10;;
10120;SDS011;5100;45.176;5.714;2023-03-05T13:04:28;33.67;;;30.17;;
10120;SDS011;5100;45.176;5.714;2023-03-05T13:06:57;33.80;;;28.90;;
10120;SDS011;5100;45.176;5.714;2023-03-05T13:09:26;34.80;;;31.20;;
10120;SDS011;5100;45.176;5.714;2023-03-05T13:11:56;35.10;;;29.50;;
10120;SDS011;5100;45.176;5.714;2023-03-05T13:17:01;32.37;;;29.07;;
10120;SDS011;5100;45.176;5.714;2023-03-05T13:19:47;34.80;;;31.20;;
10120;SDS011;5100;45.176;5.714;2023-03-05T13:22:13;32.87;;;29.47;;
10120;SDS011;5100;45.176;5.714;2023-03-05T13:24:39;33.87;;;30.43;;
10120;SDS011;5100;45.176;5.714;2023-03-05T13:27:18;33.77;;;30.10;;
10120;SDS011;5100;45.176;5.714;2023-03-05T13:29:55;35.13;;;31.60;;
10120;SDS011;5100;45.176;5.714;2023-03-05T13:32:25;34.70;;;30.20;;
10120;SDS011;5100;45.176;5.714;2023-03-05T13:34:56;34.17;;;30.50;;
10120;SDS011;5100;45.176;5.714;2023-03-05T13:37:25;34.20;;;30.60;;
10120;SDS011;5100;45.176;5.714;2023-03-05T13:39:56;33.30;;;29.50;;
10120;SDS011;5100;45.176;5.714;2023-03-05T13:42:25;35.10;;;31.47;;
10120;SDS011;5100;45.176;5.714;2023-03-05T13:44:55;33.73;;;30.20;;
10120;SDS011;5100;45.176;5.714;2023-03-05T13:47:23;33.13;;;29.70;;
10120;SDS011;5100;45.176;5.714;2023-03-05T13:49:57;36.40;;;29.33;;
10120;SDS011;5100;45.176;5.714;2023-03-05T13:52:34;33.30;;;29.63;;
10120;SDS011;5100;45.176;5.714;2023-03-05T13:55:04;33.43;;;29.63;;
10120;SDS011;5100;45.176;5.714;2023-03-05T13:57:41;31.97;;;28.47;;
10120;SDS011;5100;45.176;5.714;2023-03-05T14:03:06;35.17;;;29.87;;
10120;SDS011;5100;45.176;5.714;2023-03-05T14:05:45;32.70;;;29.00;;
10120;SDS011;5100;45.176;5.714;2023-03-05T14:08:19;35.30;;;31.80;;
10120;SDS011;5100;45.176;5.714;2023-03-05T14:10:48;34.03;;;30.30;;
10120;SDS011;5100;45.176;5.714;2023-03-05T14:13:23;33.63;;;29.83;;
10120;SDS011;5100;45.176;5.714;2023-03-05T14:16:02;32.83;;;29.30;;
10120;SDS011;5100;45.176;5.714;2023-03-05T14:18:28;33.23;;;29.83;;
10120;SDS011;5100;45.176;5.714;2023-03-05T14:28:56;34.67;;;30.93;;
10120;SDS011;5100;45.176;5.714;2023-03-05T14:31:25;32.67;;;29.17;;
10120;SDS011;5100;45.176;5.714;2023-03-05T14:33:52;34.70;;;31.10;;
10120;SDS011;5100;45.176;5.714;2023-03-05T14:36:24;34.47;;;30.77;;
10120;SDS011;5100;45.176;5.714;2023-03-05T14:38:53;33.97;;;30.47;;
10120;SDS011;5100;45.176;5.714;2023-03-05T14:41:35;37.27;;;29.80;;
10120;SDS011;5100;45.176;5.714;2023-03-05T14:44:10;31.93;;;28.53;;
10120;SDS011;5100;45.176;5.714;2023-03-05T14:46:38;34.40;;;30.03;;
10120;SDS011;5100;45.176;5.714;2023-03-05T14:49:04;33.60;;;30.00;;
10120;SDS011;5100;45.176;5.714;2023-03-05T14:51:32;35.40;;;30.23;;
10120;SDS011;5100;45.176;5.714;2023-03-05T14:54:02;33.10;;;29.10;;
10120;SDS011;5100;45.176;5.714;2023-03-05T14:56:29;32.93;;;29.47;;
10120;SDS011;5100;45.176;5.714;2023-03-05T14:58:55;32.67;;;29.03;;
10120;SDS011;5100;45.176;5.714;2023-03-05T15:01:22;33.67;;;30.00;;
10120;SDS011;5100;45.176;5.714;2023-03-05T15:03:49;33.40;;;29.83;;
10120;SDS011;5100;45.176;5.714;2023-03-05T15:06:29;32.60;;;29.10;;
10120;SDS011;5100;45.176;5.714;2023-03-05T15:08:59;33.13;;;29.53;;
10120;SDS011;5100;45.176;5.714;2023-03-05T15:11:25;32.33;;;28.17;;
10120;SDS011;5100;45.176;5.714;2023-03-05T15:13:51;31.87;;;28.47;;
10120;SDS011;5100;45.176;5.714;2023-03-05T15:16:18;32.33;;;28.93;;
10120;SDS011;5100;45.176;5.714;2023-03-05T15:18:44;32.43;;;29.13;;
10120;SDS011;5100;45.176;5.714;2023-03-05T15:21:10;30.53;;;27.27;;
10120;SDS011;5100;45.176;5.714;2023-03-05T15:23:36;32.70;;;27.43;;
10120;SDS011;5100;45.176;5.714;2023-03-05T15:26:03;31.60;;;28.50;;
10120;SDS011;5100;45.176;5.714;2023-03-05T15:28:35;30.57;;;26.50;;
10120;SDS011;5100;45.176;5.714;2023-03-05T15:31:02;30.13;;;26.83;;
10120;SDS011;5100;45.176;5.714;2023-03-05T15:33:29;31.60;;;28.17;;
10120;SDS011;5100;45.176;5.714;2023-03-05T15:35:55;33.43;;;27.40;;
10120;SDS011;5100;45.176;5.714;2023-03-05T15:38:22;29.80;;;26.63;;
10120;SDS011;5100;45.176;5.714;2023-03-05T15:40:49;30.57;;;26.77;;
10120;SDS011;5100;45.176;5.714;2023-03-05T15:43:16;31.70;;;27.23;;
10120;SDS011;5100;45.176;5.714;2023-03-05T15:45:43;30.87;;;27.50;;
10120;SDS011;5100;45.176;5.714;2023-03-05T15:48:09;32.17;;;27.30;;
10120;SDS011;5100;45.176;5.714;2023-03-05T15:50:38;29.80;;;26.73;;
10120;SDS011;5100;45.176;5.714;2023-03-05T15:53:06;30.60;;;27.30;;
10120;SDS011;5100;45.176;5.714;2023-03-05T15:55:36;31.00;;;27.73;;
10120;SDS011;5100;45.176;5.714;2023-03-05T15:58:06;31.77;;;28.47;;
10120;SDS011;5100;45.176;5.714;2023-03-05T16:00:33;30.27;;;27.03;;
10120;SDS011;5100;45.176;5.714;2023-03-05T16:03:01;33.33;;;27.97;;
10120;SDS011;5100;45.176;5.714;2023-03-05T16:05:28;30.17;;;27.07;;
10120;SDS011;5100;45.176;5.714;2023-03-05T16:07:54;31.53;;;28.23;;